sensor_id;sensor_type;location;lat;lon;timestamp;P1;durP1;ratioP1;P2;durP2;ratioP2
17820;SDS011;9035;42.554;23.188;2022-07-06T00:00:11;9.73;;;8.77;;
17820;SDS011;9035;42.554;23.188;2022-07-06T00:02:39;9.13;;;8.13;;
17820;SDS011;9035;42.554;23.188;2022-07-06T00:05:06;11.60;;;8.90;;
17820;SDS011;9035;42.554;23.188;2022-07-06T00:07:34;9.80;;;8.80;;
17820;SDS011;9035;42.554;23.188;2022-07-06T00:10:02;9.97;;;8.97;;
17820;SDS011;9035;42.554;23.188;2022-07-06T00:12:29;9.17;;;8.27;;
17820;SDS011;9035;42.554;23.188;2022-07-06T00:14:56;9.27;;;8.43;;
17820;SDS011;9035;42.554;23.188;2022-07-06T00:17:22;9.00;;;8.13;;
17820;SDS011;9035;42.554;23.188;2022-07-06T00:19:49;9.47;;;8.57;;
17820;SDS011;9035;42.554;23.188;2022-07-06T00:22:16;10.80;;;9.70;;
17820;SDS011;9035;42.554;23.188;2022-07-06T00:24:43;11.40;;;10.23;;
17820;SDS011;9035;42.554;23.188;2022-07-06T00:27:11;10.17;;;9.17;;
17820;SDS011;9035;42.554;23.188;2022-07-06T00:29:38;10.23;;;9.23;;
17820;SDS011;9035;42.554;23.188;2022-07-06T00:32:08;11.67;;;9.73;;
17820;SDS011;9035;42.554;23.188;2022-07-06T00:34:35;11.07;;;9.37;;
17820;SDS011;9035;42.554;23.188;2022-07-06T00:37:04;9.93;;;8.93;;
17820;SDS011;9035;42.554;23.188;2022-07-06T00:39:31;10.37;;;9.37;;
17820;SDS011;9035;42.554;23.188;2022-07-06T00:41:58;9.80;;;8.90;;
17820;SDS011;9035;42.554;23.188;2022-07-06T00:44:26;9.97;;;9.03;;
17820;SDS011;9035;42.554;23.188;2022-07-06T00:46:54;10.40;;;9.30;;
17820;SDS011;9035;42.554;23.188;2022-07-06T00:49:20;10.87;;;9.50;;
17820;SDS011;9035;42.554;23.188;2022-07-06T00:52:04;14.03;;;9.83;;
17820;SDS011;9035;42.554;23.188;2022-07-06T00:54:32;13.93;;;10.30;;
17820;SDS011;9035;42.554;23.188;2022-07-06T00:56:58;10.90;;;9.90;;
17820;SDS011;9035;42.554;23.188;2022-07-06T00:59:27;11.83;;;10.70;;
17820;SDS011;9035;42.554;23.188;2022-07-06T01:01:54;10.87;;;9.87;;
17820;SDS011;9035;42.554;23.188;2022-07-06T01:04:21;10.73;;;9.73;;
17820;SDS011;9035;42.554;23.188;2022-07-06T01:06:48;11.00;;;9.90;;
17820;SDS011;9035;42.554;23.188;2022-07-06T01:09:15;10.57;;;9.50;;
17820;SDS011;9035;42.554;23.188;2022-07-06T01:11:42;9.63;;;8.63;;
17820;SDS011;9035;42.554;23.188;2022-07-06T01:14:09;9.50;;;8.50;;
17820;SDS011;9035;42.554;23.188;2022-07-06T01:16:39;9.53;;;8.03;;
17820;SDS011;9035;42.554;23.188;2022-07-06T01:19:06;10.03;;;8.70;;
17820;SDS011;9035;42.554;23.188;2022-07-06T01:21:36;9.37;;;8.47;;
17820;SDS011;9035;42.554;23.188;2022-07-06T01:24:04;8.50;;;7.70;;
17820;SDS011;9035;42.554;23.188;2022-07-06T01:26:31;9.50;;;8.27;;
17820;SDS011;9035;42.554;23.188;2022-07-06T01:28:58;8.83;;;7.93;;
17820;SDS011;9035;42.554;23.188;2022-07-06T01:31:25;10.27;;;7.93;;
17820;SDS011;9035;42.554;23.188;2022-07-06T01:33:53;9.23;;;7.43;;
17820;SDS011;9035;42.554;23.188;2022-07-06T01:36:21;9.63;;;8.10;;
17820;SDS011;9035;42.554;23.188;2022-07-06T01:38:50;10.17;;;9.13;;
17820;SDS011;9035;42.554;23.188;2022-07-06T01:41:18;10.10;;;8.47;;
17820;SDS011;9035;42.554;23.188;2022-07-06T01:43:45;10.13;;;9.23;;
17820;SDS011;9035;42.554;23.188;2022-07-06T01:46:12;9.73;;;8.73;;
17820;SDS011;9035;42.554;23.188;2022-07-06T01:48:40;11.83;;;10.67;;
17820;SDS011;9035;42.554;23.188;2022-07-06T01:51:07;11.60;;;10.40;;
17820;SDS011;9035;42.554;23.188;2022-07-06T01:53:34;10.40;;;9.40;;
17820;SDS011;9035;42.554;23.188;2022-07-06T01:56:03;12.50;;;10.40;;
17820;SDS011;9035;42.554;23.188;2022-07-06T01:58:30;11.10;;;9.87;;
17820;SDS011;9035;42.554;23.188;2022-07-06T02:00:57;15.27;;;13.43;;
17820;SDS011;9035;42.554;23.188;2022-07-06T02:03:24;18.97;;;16.50;;
17820;SDS011;9035;42.554;23.188;2022-07-06T02:05:51;15.77;;;14.17;;
17820;SDS011;9035;42.554;23.188;2022-07-06T02:08:18;11.70;;;10.20;;
17820;SDS011;9035;42.554;23.188;2022-07-06T02:10:44;9.80;;;8.80;;
17820;SDS011;9035;42.554;23.188;2022-07-06T02:13:13;10.83;;;9.77;;
17820;SDS011;9035;42.554;23.188;2022-07-06T02:15:39;13.30;;;10.13;;
17820;SDS011;9035;42.554;23.188;2022-07-06T02:18:06;14.63;;;12.83;;
17820;SDS011;9035;42.554;23.188;2022-07-06T02:20:33;12.30;;;10.77;;
17820;SDS011;9035;42.554;23.188;2022-07-06T02:22:59;16.37;;;13.63;;
17820;SDS011;9035;42.554;23.188;2022-07-06T02:25:26;10.43;;;9.43;;
17820;SDS011;9035;42.554;23.188;2022-07-06T02:27:53;9.90;;;8.33;;
17820;SDS011;9035;42.554;23.188;2022-07-06T02:30:21;10.43;;;8.97;;
17820;SDS011;9035;42.554;23.188;2022-07-06T02:32:48;18.73;;;13.90;;
17820;SDS011;9035;42.554;23.188;2022-07-06T02:35:15;13.63;;;10.70;;
17820;SDS011;9035;42.554;23.188;2022-07-06T02:37:42;15.13;;;13.53;;
17820;SDS011;9035;42.554;23.188;2022-07-06T02:40:09;20.87;;;14.73;;
17820;SDS011;9035;42.554;23.188;2022-07-06T02:42:36;16.67;;;15.07;;
17820;SDS011;9035;42.554;23.188;2022-07-06T02:45:03;20.73;;;17.83;;
17820;SDS011;9035;42.554;23.188;2022-07-06T02:47:32;13.80;;;12.23;;
17820;SDS011;9035;42.554;23.188;2022-07-06T02:49:59;12.90;;;10.70;;
17820;SDS011;9035;42.554;23.188;2022-07-06T02:52:26;9.57;;;7.97;;
17820;SDS011;9035;42.554;23.188;2022-07-06T02:54:53;9.47;;;7.97;;
17820;SDS011;9035;42.554;23.188;2022-07-06T02:57:20;10.10;;;7.90;;
17820;SDS011;9035;42.554;23.188;2022-07-06T02:59:46;9.27;;;8.07;;
17820;SDS011;9035;42.554;23.188;2022-07-06T03:02:14;8.57;;;7.77;;
17820;SDS011;9035;42.554;23.188;2022-07-06T03:04:43;10.50;;;9.50;;
17820;SDS011;9035;42.554;23.188;2022-07-06T03:07:09;9.73;;;8.83;;
17820;SDS011;9035;42.554;23.188;2022-07-06T03:09:36;10.00;;;9.07;;
17820;SDS011;9035;42.554;23.188;2022-07-06T03:12:03;10.20;;;8.97;;
17820;SDS011;9035;42.554;23.188;2022-07-06T03:14:30;10.90;;;9.80;;
17820;SDS011;9035;42.554;23.188;2022-07-06T03:16:57;13.27;;;9.43;;
17820;SDS011;9035;42.554;23.188;2022-07-06T03:19:24;13.37;;;7.60;;
17820;SDS011;9035;42.554;23.188;2022-07-06T03:21:52;9.47;;;8.57;;
17820;SDS011;9035;42.554;23.188;2022-07-06T03:24:18;9.73;;;8.83;;
17820;SDS011;9035;42.554;23.188;2022-07-06T03:26:45;11.43;;;9.67;;
17820;SDS011;9035;42.554;23.188;2022-07-06T03:29:13;10.67;;;9.57;;
17820;SDS011;9035;42.554;23.188;2022-07-06T03:31:39;9.93;;;9.00;;
17820;SDS011;9035;42.554;23.188;2022-07-06T03:34:06;10.87;;;8.67;;
17820;SDS011;9035;42.554;23.188;2022-07-06T03:36:33;9.97;;;8.97;;
17820;SDS011;9035;42.554;23.188;2022-07-06T03:39:01;10.40;;;9.43;;
17820;SDS011;9035;42.554;23.188;2022-07-06T03:41:28;10.10;;;9.20;;
17820;SDS011;9035;42.554;23.188;2022-07-06T03:43:55;10.53;;;9.53;;
17820;SDS011;9035;42.554;23.188;2022-07-06T03:46:22;12.30;;;10.10;;
17820;SDS011;9035;42.554;23.188;2022-07-06T03:48:48;11.23;;;10.03;;
17820;SDS011;9035;42.554;23.188;2022-07-06T03:51:15;10.90;;;9.90;;
17820;SDS011;9035;42.554;23.188;2022-07-06T03:53:42;12.57;;;9.70;;
17820;SDS011;9035;42.554;23.188;2022-07-06T03:56:11;12.33;;;9.37;;
17820;SDS011;9035;42.554;23.188;2022-07-06T03:58:58;10.47;;;9.50;;
17820;SDS011;9035;42.554;23.188;2022-07-06T04:01:26;12.10;;;9.60;;
17820;SDS011;9035;42.554;23.188;2022-07-06T04:03:53;9.47;;;8.53;;
17820;SDS011;9035;42.554;23.188;2022-07-06T04:06:20;14.80;;;8.97;;
17820;SDS011;9035;42.554;23.188;2022-07-06T04:08:47;9.33;;;6.80;;
17820;SDS011;9035;42.554;23.188;2022-07-06T04:11:15;9.43;;;8.13;;
17820;SDS011;9035;42.554;23.188;2022-07-06T04:13:42;9.97;;;7.33;;
17820;SDS011;9035;42.554;23.188;2022-07-06T04:16:09;8.13;;;7.27;;
17820;SDS011;9035;42.554;23.188;2022-07-06T04:18:35;10.37;;;7.47;;
17820;SDS011;9035;42.554;23.188;2022-07-06T04:21:02;8.83;;;7.63;;
17820;SDS011;9035;42.554;23.188;2022-07-06T04:23:29;7.70;;;6.90;;
17820;SDS011;9035;42.554;23.188;2022-07-06T04:25:56;9.80;;;6.90;;
17820;SDS011;9035;42.554;23.188;2022-07-06T04:28:24;9.87;;;6.73;;
17820;SDS011;9035;42.554;23.188;2022-07-06T04:30:51;11.40;;;6.77;;
17820;SDS011;9035;42.554;23.188;2022-07-06T04:33:18;8.80;;;6.10;;
17820;SDS011;9035;42.554;23.188;2022-07-06T04:35:45;11.03;;;6.47;;
17820;SDS011;9035;42.554;23.188;2022-07-06T04:38:11;10.77;;;6.47;;
17820;SDS011;9035;42.554;23.188;2022-07-06T04:40:38;7.47;;;6.50;;
17820;SDS011;9035;42.554;23.188;2022-07-06T04:43:05;8.73;;;6.87;;
17820;SDS011;9035;42.554;23.188;2022-07-06T04:45:33;9.10;;;6.67;;
17820;SDS011;9035;42.554;23.188;2022-07-06T04:48:00;11.37;;;7.83;;
17820;SDS011;9035;42.554;23.188;2022-07-06T04:50:27;9.33;;;7.00;;
17820;SDS011;9035;42.554;23.188;2022-07-06T04:52:53;7.73;;;6.80;;
17820;SDS011;9035;42.554;23.188;2022-07-06T04:55:20;8.10;;;6.63;;
17820;SDS011;9035;42.554;23.188;2022-07-06T04:57:47;8.50;;;6.67;;
17820;SDS011;9035;42.554;23.188;2022-07-06T05:00:14;9.57;;;6.83;;
17820;SDS011;9035;42.554;23.188;2022-07-06T05:02:42;7.87;;;7.07;;
17820;SDS011;9035;42.554;23.188;2022-07-06T05:05:09;10.70;;;6.67;;
17820;SDS011;9035;42.554;23.188;2022-07-06T05:07:36;8.63;;;6.77;;
17820;SDS011;9035;42.554;23.188;2022-07-06T05:10:05;8.73;;;7.17;;
17820;SDS011;9035;42.554;23.188;2022-07-06T05:12:33;7.70;;;6.27;;
17820;SDS011;9035;42.554;23.188;2022-07-06T05:15:00;9.47;;;6.67;;
17820;SDS011;9035;42.554;23.188;2022-07-06T05:17:27;7.97;;;5.70;;
17820;SDS011;9035;42.554;23.188;2022-07-06T05:19:55;9.07;;;7.17;;
17820;SDS011;9035;42.554;23.188;2022-07-06T05:22:22;8.37;;;6.97;;
17820;SDS011;9035;42.554;23.188;2022-07-06T05:24:49;7.77;;;6.73;;
17820;SDS011;9035;42.554;23.188;2022-07-06T05:27:16;9.70;;;6.90;;
17820;SDS011;9035;42.554;23.188;2022-07-06T05:29:43;10.63;;;7.83;;
17820;SDS011;9035;42.554;23.188;2022-07-06T05:32:10;10.30;;;7.67;;
17820;SDS011;9035;42.554;23.188;2022-07-06T05:34:36;9.30;;;7.40;;
17820;SDS011;9035;42.554;23.188;2022-07-06T05:37:06;15.40;;;8.13;;
17820;SDS011;9035;42.554;23.188;2022-07-06T05:39:33;10.20;;;7.67;;
17820;SDS011;9035;42.554;23.188;2022-07-06T05:42:00;9.03;;;7.87;;
17820;SDS011;9035;42.554;23.188;2022-07-06T05:44:26;10.90;;;8.30;;
17820;SDS011;9035;42.554;23.188;2022-07-06T05:46:53;10.17;;;8.20;;
17820;SDS011;9035;42.554;23.188;2022-07-06T05:49:40;10.33;;;8.70;;
17820;SDS011;9035;42.554;23.188;2022-07-06T05:52:25;12.00;;;8.37;;
17820;SDS011;9035;42.554;23.188;2022-07-06T05:54:52;11.50;;;9.27;;
17820;SDS011;9035;42.554;23.188;2022-07-06T05:57:19;14.97;;;10.00;;
17820;SDS011;9035;42.554;23.188;2022-07-06T05:59:46;11.60;;;9.23;;
17820;SDS011;9035;42.554;23.188;2022-07-06T06:02:12;9.87;;;8.77;;
17820;SDS011;9035;42.554;23.188;2022-07-06T06:04:39;11.00;;;8.37;;
17820;SDS011;9035;42.554;23.188;2022-07-06T06:07:06;10.47;;;7.77;;
17820;SDS011;9035;42.554;23.188;2022-07-06T06:09:34;11.17;;;8.07;;
17820;SDS011;9035;42.554;23.188;2022-07-06T06:12:01;11.00;;;8.90;;
17820;SDS011;9035;42.554;23.188;2022-07-06T06:14:28;12.07;;;10.03;;
17820;SDS011;9035;42.554;23.188;2022-07-06T06:16:54;10.50;;;8.67;;
17820;SDS011;9035;42.554;23.188;2022-07-06T06:19:21;10.60;;;9.23;;
17820;SDS011;9035;42.554;23.188;2022-07-06T06:21:48;11.20;;;8.70;;
17820;SDS011;9035;42.554;23.188;2022-07-06T06:24:16;11.97;;;8.83;;
17820;SDS011;9035;42.554;23.188;2022-07-06T06:26:45;9.10;;;8.17;;
17820;SDS011;9035;42.554;23.188;2022-07-06T06:29:11;10.53;;;9.13;;
17820;SDS011;9035;42.554;23.188;2022-07-06T06:31:38;10.93;;;8.87;;
17820;SDS011;9035;42.554;23.188;2022-07-06T06:34:05;11.57;;;9.60;;
17820;SDS011;9035;42.554;23.188;2022-07-06T06:36:31;12.70;;;8.77;;
17820;SDS011;9035;42.554;23.188;2022-07-06T06:38:58;10.40;;;9.30;;
17820;SDS011;9035;42.554;23.188;2022-07-06T06:41:25;10.47;;;9.37;;
17820;SDS011;9035;42.554;23.188;2022-07-06T06:43:53;11.40;;;10.17;;
17820;SDS011;9035;42.554;23.188;2022-07-06T06:46:20;13.30;;;9.83;;
17820;SDS011;9035;42.554;23.188;2022-07-06T06:48:47;12.47;;;10.20;;
17820;SDS011;9035;42.554;23.188;2022-07-06T06:51:13;11.33;;;10.23;;
17820;SDS011;9035;42.554;23.188;2022-07-06T06:53:40;14.73;;;11.07;;
17820;SDS011;9035;42.554;23.188;2022-07-06T06:56:07;12.90;;;11.60;;
17820;SDS011;9035;42.554;23.188;2022-07-06T06:58:34;11.70;;;10.50;;
17820;SDS011;9035;42.554;23.188;2022-07-06T07:01:02;13.23;;;11.27;;
17820;SDS011;9035;42.554;23.188;2022-07-06T07:03:29;14.77;;;11.30;;
17820;SDS011;9035;42.554;23.188;2022-07-06T07:05:56;11.57;;;10.37;;
17820;SDS011;9035;42.554;23.188;2022-07-06T07:08:23;12.00;;;10.80;;
17820;SDS011;9035;42.554;23.188;2022-07-06T07:10:50;12.70;;;10.70;;
17820;SDS011;9035;42.554;23.188;2022-07-06T07:13:16;13.30;;;12.00;;
17820;SDS011;9035;42.554;23.188;2022-07-06T07:15:43;11.87;;;10.67;;
17820;SDS011;9035;42.554;23.188;2022-07-06T07:18:11;10.97;;;9.73;;
17820;SDS011;9035;42.554;23.188;2022-07-06T07:20:38;11.93;;;10.70;;
17820;SDS011;9035;42.554;23.188;2022-07-06T07:23:05;12.43;;;10.50;;
17820;SDS011;9035;42.554;23.188;2022-07-06T07:25:31;16.07;;;10.23;;
17820;SDS011;9035;42.554;23.188;2022-07-06T07:27:59;11.60;;;10.43;;
17820;SDS011;9035;42.554;23.188;2022-07-06T07:30:26;12.70;;;10.03;;
17820;SDS011;9035;42.554;23.188;2022-07-06T07:32:53;12.93;;;10.60;;
17820;SDS011;9035;42.554;23.188;2022-07-06T07:35:22;12.30;;;10.13;;
17820;SDS011;9035;42.554;23.188;2022-07-06T07:37:49;12.20;;;10.67;;
17820;SDS011;9035;42.554;23.188;2022-07-06T07:40:17;12.60;;;11.20;;
17820;SDS011;9035;42.554;23.188;2022-07-06T07:42:43;16.17;;;10.23;;
17820;SDS011;9035;42.554;23.188;2022-07-06T07:45:10;11.10;;;9.77;;
17820;SDS011;9035;42.554;23.188;2022-07-06T07:47:37;11.40;;;9.60;;
17820;SDS011;9035;42.554;23.188;2022-07-06T07:50:05;10.97;;;9.67;;
17820;SDS011;9035;42.554;23.188;2022-07-06T07:52:34;11.40;;;9.80;;
17820;SDS011;9035;42.554;23.188;2022-07-06T07:55:01;12.33;;;10.63;;
17820;SDS011;9035;42.554;23.188;2022-07-06T07:57:27;11.80;;;10.63;;
17820;SDS011;9035;42.554;23.188;2022-07-06T07:59:54;11.93;;;10.53;;
17820;SDS011;9035;42.554;23.188;2022-07-06T08:02:21;13.53;;;12.07;;
17820;SDS011;9035;42.554;23.188;2022-07-06T08:04:48;11.87;;;10.67;;
17820;SDS011;9035;42.554;23.188;2022-07-06T08:07:14;11.70;;;10.63;;
17820;SDS011;9035;42.554;23.188;2022-07-06T08:09:42;12.93;;;11.17;;
17820;SDS011;9035;42.554;23.188;2022-07-06T08:12:09;13.07;;;11.20;;
17820;SDS011;9035;42.554;23.188;2022-07-06T08:14:36;13.07;;;11.47;;
17820;SDS011;9035;42.554;23.188;2022-07-06T08:17:03;11.40;;;10.30;;
17820;SDS011;9035;42.554;23.188;2022-07-06T08:19:30;12.60;;;11.30;;
17820;SDS011;9035;42.554;23.188;2022-07-06T08:21:57;11.60;;;10.50;;
17820;SDS011;9035;42.554;23.188;2022-07-06T08:24:24;12.27;;;10.97;;
17820;SDS011;9035;42.554;23.188;2022-07-06T08:26:52;12.43;;;10.90;;
17820;SDS011;9035;42.554;23.188;2022-07-06T08:29:19;14.27;;;12.77;;
17820;SDS011;9035;42.554;23.188;2022-07-06T08:31:46;14.40;;;12.10;;
17820;SDS011;9035;42.554;23.188;2022-07-06T08:34:13;13.63;;;12.23;;
17820;SDS011;9035;42.554;23.188;2022-07-06T08:36:39;13.63;;;12.30;;
17820;SDS011;9035;42.554;23.188;2022-07-06T08:39:06;13.77;;;12.37;;
17820;SDS011;9035;42.554;23.188;2022-07-06T08:41:34;15.37;;;11.77;;
17820;SDS011;9035;42.554;23.188;2022-07-06T08:44:04;12.07;;;10.77;;
17820;SDS011;9035;42.554;23.188;2022-07-06T08:46:32;11.37;;;10.23;;
17820;SDS011;9035;42.554;23.188;2022-07-06T08:48:59;11.87;;;10.67;;
17820;SDS011;9035;42.554;23.188;2022-07-06T08:51:26;12.80;;;10.40;;
17820;SDS011;9035;42.554;23.188;2022-07-06T08:53:53;11.10;;;10.00;;
17820;SDS011;9035;42.554;23.188;2022-07-06T08:56:22;12.90;;;10.83;;
17820;SDS011;9035;42.554;23.188;2022-07-06T08:58:49;11.90;;;10.57;;
17820;SDS011;9035;42.554;23.188;2022-07-06T09:01:18;12.50;;;11.13;;
17820;SDS011;9035;42.554;23.188;2022-07-06T09:03:45;14.13;;;11.80;;
17820;SDS011;9035;42.554;23.188;2022-07-06T09:06:15;13.83;;;11.23;;
17820;SDS011;9035;42.554;23.188;2022-07-06T09:08:43;12.97;;;11.67;;
17820;SDS011;9035;42.554;23.188;2022-07-06T09:11:11;11.83;;;10.13;;
17820;SDS011;9035;42.554;23.188;2022-07-06T09:13:38;12.40;;;10.70;;
17820;SDS011;9035;42.554;23.188;2022-07-06T09:16:11;12.67;;;11.40;;
17820;SDS011;9035;42.554;23.188;2022-07-06T09:18:42;12.13;;;11.03;;
17820;SDS011;9035;42.554;23.188;2022-07-06T09:21:10;14.80;;;12.73;;
17820;SDS011;9035;42.554;23.188;2022-07-06T09:23:37;13.13;;;11.73;;
17820;SDS011;9035;42.554;23.188;2022-07-06T09:26:05;13.03;;;11.70;;
17820;SDS011;9035;42.554;23.188;2022-07-06T09:28:40;13.03;;;11.70;;
17820;SDS011;9035;42.554;23.188;2022-07-06T09:31:07;15.03;;;12.97;;
17820;SDS011;9035;42.554;23.188;2022-07-06T09:33:35;13.57;;;12.23;;
17820;SDS011;9035;42.554;23.188;2022-07-06T09:36:03;13.30;;;11.93;;
17820;SDS011;9035;42.554;23.188;2022-07-06T09:38:31;13.83;;;12.43;;
17820;SDS011;9035;42.554;23.188;2022-07-06T09:40:58;13.07;;;11.70;;
17820;SDS011;9035;42.554;23.188;2022-07-06T09:43:27;14.07;;;12.67;;
17820;SDS011;9035;42.554;23.188;2022-07-06T09:45:55;13.23;;;11.97;;
17820;SDS011;9035;42.554;23.188;2022-07-06T09:48:23;14.40;;;12.90;;
17820;SDS011;9035;42.554;23.188;2022-07-06T09:50:52;12.90;;;11.60;;
17820;SDS011;9035;42.554;23.188;2022-07-06T09:53:21;13.27;;;11.73;;
17820;SDS011;9035;42.554;23.188;2022-07-06T09:55:50;14.03;;;11.87;;
17820;SDS011;9035;42.554;23.188;2022-07-06T09:58:17;12.57;;;11.37;;
17820;SDS011;9035;42.554;23.188;2022-07-06T10:00:46;12.40;;;11.20;;
17820;SDS011;9035;42.554;23.188;2022-07-06T10:03:14;13.63;;;12.23;;
17820;SDS011;9035;42.554;23.188;2022-07-06T10:05:42;15.60;;;13.80;;
17820;SDS011;9035;42.554;23.188;2022-07-06T10:08:11;15.40;;;13.87;;
17820;SDS011;9035;42.554;23.188;2022-07-06T10:10:41;15.57;;;13.97;;
17820;SDS011;9035;42.554;23.188;2022-07-06T10:13:08;16.23;;;14.53;;
17820;SDS011;9035;42.554;23.188;2022-07-06T10:15:36;19.33;;;16.93;;
17820;SDS011;9035;42.554;23.188;2022-07-06T10:18:04;17.83;;;15.67;;
17820;SDS011;9035;42.554;23.188;2022-07-06T10:20:33;18.53;;;16.73;;
17820;SDS011;9035;42.554;23.188;2022-07-06T10:23:02;16.57;;;14.50;;
17820;SDS011;9035;42.554;23.188;2022-07-06T10:25:31;16.73;;;14.80;;
17820;SDS011;9035;42.554;23.188;2022-07-06T10:28:00;16.63;;;14.80;;
17820;SDS011;9035;42.554;23.188;2022-07-06T10:30:27;17.30;;;14.27;;
17820;SDS011;9035;42.554;23.188;2022-07-06T10:32:56;18.27;;;15.63;;
17820;SDS011;9035;42.554;23.188;2022-07-06T10:35:25;14.63;;;13.13;;
17820;SDS011;9035;42.554;23.188;2022-07-06T10:38:02;15.30;;;13.70;;
17820;SDS011;9035;42.554;23.188;2022-07-06T10:40:34;13.13;;;11.93;;
17820;SDS011;9035;42.554;23.188;2022-07-06T10:43:21;13.43;;;12.13;;
17820;SDS011;9035;42.554;23.188;2022-07-06T10:45:51;14.10;;;12.60;;
17820;SDS011;9035;42.554;23.188;2022-07-06T10:48:19;13.57;;;12.17;;
17820;SDS011;9035;42.554;23.188;2022-07-06T10:50:48;15.30;;;13.90;;
17820;SDS011;9035;42.554;23.188;2022-07-06T10:53:16;16.17;;;14.47;;
17820;SDS011;9035;42.554;23.188;2022-07-06T10:55:47;14.40;;;13.00;;
17820;SDS011;9035;42.554;23.188;2022-07-06T10:58:23;14.97;;;13.53;;
17820;SDS011;9035;42.554;23.188;2022-07-06T11:01:01;16.00;;;14.40;;
17820;SDS011;9035;42.554;23.188;2022-07-06T11:03:32;15.20;;;13.70;;
17820;SDS011;9035;42.554;23.188;2022-07-06T11:06:00;16.33;;;13.83;;
17820;SDS011;9035;42.554;23.188;2022-07-06T11:08:40;14.00;;;12.53;;
17820;SDS011;9035;42.554;23.188;2022-07-06T11:11:11;16.90;;;13.03;;
17820;SDS011;9035;42.554;23.188;2022-07-06T11:13:43;13.87;;;12.50;;
17820;SDS011;9035;42.554;23.188;2022-07-06T11:16:15;15.10;;;13.50;;
17820;SDS011;9035;42.554;23.188;2022-07-06T11:18:45;14.27;;;12.87;;
17820;SDS011;9035;42.554;23.188;2022-07-06T11:21:21;15.30;;;12.50;;
17820;SDS011;9035;42.554;23.188;2022-07-06T11:23:50;13.63;;;12.17;;
17820;SDS011;9035;42.554;23.188;2022-07-06T11:26:17;14.93;;;13.43;;
17820;SDS011;9035;42.554;23.188;2022-07-06T11:28:46;14.60;;;13.27;;
17820;SDS011;9035;42.554;23.188;2022-07-06T11:31:16;16.50;;;14.90;;
17820;SDS011;9035;42.554;23.188;2022-07-06T11:33:46;17.83;;;15.93;;
17820;SDS011;9035;42.554;23.188;2022-07-06T11:36:16;18.83;;;15.83;;
17820;SDS011;9035;42.554;23.188;2022-07-06T11:38:44;18.60;;;16.80;;
17820;SDS011;9035;42.554;23.188;2022-07-06T11:41:13;19.70;;;17.63;;
17820;SDS011;9035;42.554;23.188;2022-07-06T11:43:41;17.97;;;16.17;;
17820;SDS011;9035;42.554;23.188;2022-07-06T11:46:20;18.47;;;16.63;;
17820;SDS011;9035;42.554;23.188;2022-07-06T11:48:47;19.90;;;17.83;;
17820;SDS011;9035;42.554;23.188;2022-07-06T11:51:15;21.13;;;17.60;;
17820;SDS011;9035;42.554;23.188;2022-07-06T11:53:45;17.13;;;15.50;;
17820;SDS011;9035;42.554;23.188;2022-07-06T11:56:14;18.33;;;16.53;;
17820;SDS011;9035;42.554;23.188;2022-07-06T11:58:43;18.30;;;16.57;;
17820;SDS011;9035;42.554;23.188;2022-07-06T12:01:12;16.53;;;15.07;;
17820;SDS011;9035;42.554;23.188;2022-07-06T12:03:41;18.50;;;15.67;;
17820;SDS011;9035;42.554;23.188;2022-07-06T12:06:15;16.87;;;14.90;;
17820;SDS011;9035;42.554;23.188;2022-07-06T12:08:44;16.10;;;14.60;;
17820;SDS011;9035;42.554;23.188;2022-07-06T12:11:16;16.53;;;15.03;;
17820;SDS011;9035;42.554;23.188;2022-07-06T12:13:46;16.77;;;15.23;;
17820;SDS011;9035;42.554;23.188;2022-07-06T12:16:13;16.37;;;14.87;;
17820;SDS011;9035;42.554;23.188;2022-07-06T12:18:43;15.97;;;14.27;;
17820;SDS011;9035;42.554;23.188;2022-07-06T12:21:10;17.27;;;15.33;;
17820;SDS011;9035;42.554;23.188;2022-07-06T12:23:42;15.87;;;14.37;;
17820;SDS011;9035;42.554;23.188;2022-07-06T12:26:10;14.53;;;13.23;;
17820;SDS011;9035;42.554;23.188;2022-07-06T12:28:37;19.00;;;13.87;;
17820;SDS011;9035;42.554;23.188;2022-07-06T12:31:04;16.27;;;14.77;;
17820;SDS011;9035;42.554;23.188;2022-07-06T12:33:31;15.73;;;14.33;;
17820;SDS011;9035;42.554;23.188;2022-07-06T12:36:09;16.60;;;14.97;;
17820;SDS011;9035;42.554;23.188;2022-07-06T12:38:43;15.80;;;13.97;;
17820;SDS011;9035;42.554;23.188;2022-07-06T12:41:11;15.27;;;13.83;;
17820;SDS011;9035;42.554;23.188;2022-07-06T12:43:48;16.00;;;14.50;;
17820;SDS011;9035;42.554;23.188;2022-07-06T12:46:29;16.07;;;14.33;;
17820;SDS011;9035;42.554;23.188;2022-07-06T12:48:57;16.40;;;14.90;;
17820;SDS011;9035;42.554;23.188;2022-07-06T12:51:26;17.20;;;13.50;;
17820;SDS011;9035;42.554;23.188;2022-07-06T12:59:38;11.40;;;10.40;;
17820;SDS011;9035;42.554;23.188;2022-07-06T13:02:06;15.30;;;10.87;;
17820;SDS011;9035;42.554;23.188;2022-07-06T13:04:34;11.50;;;10.47;;
17820;SDS011;9035;42.554;23.188;2022-07-06T13:07:03;11.13;;;10.13;;
17820;SDS011;9035;42.554;23.188;2022-07-06T13:09:30;15.00;;;11.23;;
17820;SDS011;9035;42.554;23.188;2022-07-06T13:11:57;12.23;;;10.97;;
17820;SDS011;9035;42.554;23.188;2022-07-06T13:14:24;11.70;;;10.70;;
17820;SDS011;9035;42.554;23.188;2022-07-06T13:16:50;10.40;;;9.50;;
17820;SDS011;9035;42.554;23.188;2022-07-06T13:19:19;9.93;;;8.93;;
17820;SDS011;9035;42.554;23.188;2022-07-06T13:21:45;10.40;;;8.37;;
17820;SDS011;9035;42.554;23.188;2022-07-06T13:24:13;16.67;;;9.77;;
17820;SDS011;9035;42.554;23.188;2022-07-06T13:26:41;11.63;;;9.05;;
17820;SDS011;9035;42.554;23.188;2022-07-06T13:29:08;10.88;;;9.57;;
17820;SDS011;9035;42.554;23.188;2022-07-06T13:31:36;21.40;;;10.07;;
17820;SDS011;9035;42.554;23.188;2022-07-06T13:34:03;12.90;;;9.73;;
17820;SDS011;9035;42.554;23.188;2022-07-06T13:36:30;10.35;;;9.40;;
17820;SDS011;9035;42.554;23.188;2022-07-06T13:38:57;9.15;;;8.30;;
17820;SDS011;9035;42.554;23.188;2022-07-06T13:41:25;9.40;;;8.50;;
17820;SDS011;9035;42.554;23.188;2022-07-06T13:43:52;9.65;;;8.75;;
17820;SDS011;9035;42.554;23.188;2022-07-06T13:46:19;7.10;;;6.50;;
17820;SDS011;9035;42.554;23.188;2022-07-06T13:48:46;5.80;;;5.30;;
17820;SDS011;9035;42.554;23.188;2022-07-06T13:51:13;5.22;;;4.82;;
17820;SDS011;9035;42.554;23.188;2022-07-06T13:53:40;5.55;;;5.05;;
17820;SDS011;9035;42.554;23.188;2022-07-06T13:56:07;5.70;;;5.20;;
17820;SDS011;9035;42.554;23.188;2022-07-06T13:58:35;7.13;;;4.72;;
17820;SDS011;9035;42.554;23.188;2022-07-06T14:01:02;5.15;;;4.75;;
17820;SDS011;9035;42.554;23.188;2022-07-06T14:03:30;5.32;;;4.40;;
17820;SDS011;9035;42.554;23.188;2022-07-06T14:05:57;4.47;;;4.07;;
17820;SDS011;9035;42.554;23.188;2022-07-06T14:08:24;3.70;;;3.28;;
17820;SDS011;9035;42.554;23.188;2022-07-06T14:10:52;3.88;;;3.58;;
17820;SDS011;9035;42.554;23.188;2022-07-06T14:13:19;4.10;;;3.60;;
17820;SDS011;9035;42.554;23.188;2022-07-06T14:15:48;3.58;;;3.20;;
17820;SDS011;9035;42.554;23.188;2022-07-06T14:18:15;3.13;;;2.92;;
17820;SDS011;9035;42.554;23.188;2022-07-06T14:20:43;4.32;;;2.92;;
17820;SDS011;9035;42.554;23.188;2022-07-06T14:23:10;2.97;;;2.67;;
17820;SDS011;9035;42.554;23.188;2022-07-06T14:25:37;3.35;;;3.05;;
17820;SDS011;9035;42.554;23.188;2022-07-06T14:28:04;3.05;;;2.75;;
17820;SDS011;9035;42.554;23.188;2022-07-06T14:30:32;4.55;;;3.42;;
17820;SDS011;9035;42.554;23.188;2022-07-06T14:33:00;3.28;;;2.97;;
17820;SDS011;9035;42.554;23.188;2022-07-06T14:35:27;3.75;;;2.88;;
17820;SDS011;9035;42.554;23.188;2022-07-06T14:37:54;3.55;;;3.22;;
17820;SDS011;9035;42.554;23.188;2022-07-06T14:40:21;3.35;;;3.00;;